• Join FlightAware (Why Join?)
  • Login
  • US Flag 
11:11PM EDT


 

Airport Tracker/Info


-or-


 

Live Flight TrackerFlight Track Log ✈ OPT332 ✈ 10-Sep-2013 ✈ KCMA - CYYC

Flight Track Log - Related Links

Times and Time Zones

All times are in EDT time to prevent confusion due to time zone crossing. See the OPT332 flight status page for this flight to view local times or setup timezone preferences in your user account.

Time Position Orientation Groundspeed Altitude Reporting Facility
EDT Latitude Longitude Course Direction KTS MPH feet Rate Location/Type
04:53PM 34.2147 -119.1122 290° West 151 174 1,300  Level Los Angeles Center
04:54PM 34.2314 -119.1669 290° West 211 243 3,000 1,080 Climbing Los Angeles Center
04:55PM 34.2400 -119.2075 284° West 259 298 3,000 2,100 Level Los Angeles Center
04:56PM 34.2333 -119.3022 265° West 245 282 6,900 2,160 Climbing Los Angeles Center
04:57PM 34.2231 -119.3906 262° West 266 306 8,000 2,040 Climbing Los Angeles Center
04:58PM 34.2075 -119.5006 260° West 276 318 11,200 3,180 Climbing Los Angeles Center
04:59PM 34.2661 -119.5553 322° Northwest 276 318 14,600 3,000 Climbing Los Angeles Center
05:00PM 34.3303 -119.6069 326° Northwest 277 319 17,500 2,760 Climbing Los Angeles Center
05:01PM 34.3983 -119.6644 325° Northwest 292 336 20,400 2,400 Climbing Los Angeles Center
05:02PM 34.4708 -119.7197 328° Northwest 303 349 22,500 2,220 Climbing Los Angeles Center
05:03PM 34.5636 -119.7881 329° Northwest 321 369 25,100 2,160 Climbing Los Angeles Center
05:04PM 34.6400 -119.8456 328° Northwest 334 384 27,000 1,800 Climbing Los Angeles Center
05:05PM 34.7233 -119.9067 329° Northwest 349 402 28,900 1,440 Climbing Los Angeles Center
05:06PM 34.8189 -119.9497 340° North 366 421 30,000 480 Climbing Los Angeles Center
05:07PM 34.9192 -119.9981 338° Northwest 386 444 30,000  Level Los Angeles Center
05:08PM 35.0400 -120.0558 339° North 391 450 30,100 720 Climbing Los Angeles Center
05:09PM 35.1386 -120.1039 338° Northwest 383 441 31,600 2,040 Climbing Los Angeles Center
05:10PM 35.2303 -120.1475 339° North 373 429 34,400 2,040 Climbing Los Angeles Center
05:11PM 35.3203 -120.1894 339° North 354 407 35,900 1,200 Climbing Los Angeles Center
05:12PM 35.4144 -120.2292 341° North 360 414 36,900 1,020 Climbing Los Angeles Center
05:13PM 35.5342 -120.2658 346° North 376 433 38,100 1,020 Climbing Los Angeles Center
05:15PM 35.6386 -120.2486 North 379 436 39,100 1,020 Climbing Los Angeles Center
05:15PM 35.6997 -120.2403 North 378 435 39,700 540 Climbing Oakland Center
05:16PM 35.8050 -120.2258 North 380 437 40,000 120 Climbing Oakland Center
05:17PM 35.9164 -120.2086 North 399 459 40,000  Level Oakland Center
05:18PM 36.0325 -120.1936 North 415 478 40,000  Level Oakland Center
05:19PM 36.1494 -120.1753 North 422 486 40,000 480 Level Oakland Center
05:20PM 36.2625 -120.1589 North 402 463 41,000 1,020 Climbing Oakland Center
05:21PM 36.3722 -120.1408 North 396 456 42,200 960 Climbing Oakland Center
05:22PM 36.5014 -120.1206 North 391 450 43,000 360 Climbing Oakland Center
05:23PM 36.6131 -120.1047 North 400 460 43,000  Level Oakland Center
05:29PM 37.2973 -120.0040 North 410 472 43,000  Level FlightAware ADS-B
05:35PM 37.9175 -119.9080 North 404 465 43,000  Level FlightAware ADS-B
05:35PM 37.9867 -119.8931 North 404 465 43,000  Level Salt Lake Center
05:36PM 38.0967 -119.8689 10° North 401 461 43,000  Level Salt Lake Center
05:37PM 38.2081 -119.8472 North 403 464 43,000  Level Salt Lake Center
05:38PM 38.3194 -119.8233 10° North 406 467 43,000  Level Salt Lake Center
05:39PM 38.4544 -119.7969 North 407 468 43,000  Level Salt Lake Center
05:40PM 38.5431 -119.7775 10° North 405 466 43,000  Level Salt Lake Center
05:41PM 38.6561 -119.7558 North 409 471 43,000  Level Salt Lake Center
05:42PM 38.7692 -119.7381 North 408 470 43,000  Level Salt Lake Center
05:43PM 38.8828 -119.7250 North 409 471 43,000  Level Salt Lake Center
05:44PM 38.9958 -119.7100 North 407 468 43,000  Level Salt Lake Center
05:45PM 39.1103 -119.6978 North 409 471 43,000  Level Salt Lake Center
05:47PM 39.2469 -119.6822 North 408 470 43,000  Level Salt Lake Center
05:48PM 39.3617 -119.6711 North 410 472 43,000  Level Salt Lake Center
05:49PM 39.4753 -119.6586 North 409 471 43,000  Level Salt Lake Center
05:50PM 39.5894 -119.6472 North 409 471 43,000  Level Salt Lake Center
05:51PM 39.7042 -119.6375 North 409 471 43,000  Level Salt Lake Center
05:52PM 39.8194 -119.6283 North 409 471 43,000  Level Seattle Center
05:53PM 39.9328 -119.6181 North 411 473 43,000  Level Salt Lake Center
05:54PM 40.0469 -119.6097 North 409 471 43,000  Level Salt Lake Center
05:55PM 40.1819 -119.5981 North 406 467 43,000  Level Salt Lake Center
05:56PM 40.2961 -119.5894 North 405 466 43,000  Level Seattle Center
05:57PM 40.4089 -119.5794 North 405 466 43,000  Level Seattle Center
05:58PM 40.5217 -119.5706 North 405 466 43,000  Level Seattle Center
05:59PM 40.6336 -119.5494 North 407 468 43,000  Level Seattle Center
06:00PM 40.7425 -119.5253 10° North 403 464 43,000  Level Salt Lake Center
06:01PM 40.8758 -119.4911 11° North 405 466 43,000  Level Salt Lake Center
06:02PM 40.9675 -119.4694 10° North 402 463 43,000  Level Seattle Center
06:03PM 41.0761 -119.4436 10° North 399 459 43,000  Level Seattle Center
06:04PM 41.1864 -119.4153 11° North 403 464 43,000  Level Seattle Center
06:05PM 41.2958 -119.3883 10° North 402 463 43,000  Level Seattle Center
06:06PM 41.4050 -119.3603 11° North 401 461 43,000  Level Seattle Center
06:07PM 41.5144 -119.3342 10° North 399 459 43,000  Level Seattle Center
06:08PM 41.6344 -119.3019 11° North 400 460 43,000  Level Seattle Center
06:09PM 41.7406 -119.2750 11° North 402 463 43,000  Level Seattle Center
06:10PM 41.8631 -119.2433 11° North 401 461 43,000  Level Seattle Center
06:11PM 41.9683 -119.2167 11° North 401 461 43,000  Level Seattle Center
06:12PM 42.0742 -119.1881 11° North 404 465 43,000  Level Seattle Center
06:13PM 42.1956 -119.1578 10° North 397 457 43,000  Level Seattle Center
06:14PM 42.2564 -119.1428 10° North 398 458 43,000  Level Seattle Center
06:14PM 42.3356 -119.1214 11° North 400 460 43,000  Level Salt Lake Center
06:15PM 42.4353 -119.0950 11° North 397 457 43,000  Level Salt Lake Center
06:16PM 42.5425 -119.0661 11° North 395 455 43,000  Level Salt Lake Center
06:17PM 42.6717 -119.0322 11° North 394 453 43,000  Level Salt Lake Center
06:19PM 42.7783 -119.0056 10° North 391 450 43,000  Level Salt Lake Center
06:20PM 42.8858 -118.9750 12° North 395 455 43,000  Level Salt Lake Center
06:21PM 42.9919 -118.9472 11° North 390 449 43,000  Level Salt Lake Center
06:22PM 43.0972 -118.9203 11° North 388 447 43,000  Level Salt Lake Center
06:23PM 43.2381 -118.8828 11° North 390 449 43,000  Level Seattle Center
06:24PM 43.3439 -118.8547 11° North 388 447 43,000  Level Seattle Center
06:25PM 43.4367 -118.8297 11° North 389 448 43,000  Level Salt Lake Center
06:26PM 43.5431 -118.8003 11° North 390 449 43,000  Level Salt Lake Center
06:27PM 43.6483 -118.7714 11° North 388 447 43,000  Level Salt Lake Center
06:28PM 43.7547 -118.7428 11° North 389 448 43,000  Level Salt Lake Center
06:29PM 43.8622 -118.7128 11° North 395 455 43,000  Level Salt Lake Center
06:30PM 43.9694 -118.6836 11° North 393 452 43,000  Level Salt Lake Center
06:31PM 44.0969 -118.6481 11° North 391 450 43,000  Level Salt Lake Center
06:32PM 44.2036 -118.6186 11° North 391 450 43,000  Level Salt Lake Center
06:33PM 44.3097 -118.5886 11° North 391 450 43,000  Level Salt Lake Center
06:34PM 44.4178 -118.5594 11° North 396 456 43,000  Level Salt Lake Center
06:35PM 44.5247 -118.5283 12° North 394 453 43,000  Level Salt Lake Center
06:36PM 44.6531 -118.4925 11° North 396 456 43,000  Level Seattle Center
06:37PM 44.7600 -118.4633 11° North 394 453 43,000  Level Seattle Center
06:38PM 44.8675 -118.4328 11° North 396 456 43,000  Level Seattle Center
06:39PM 44.9733 -118.4025 11° North 392 451 43,000  Level Seattle Center
06:40PM 45.0789 -118.3742 11° North 390 449 43,000  Level Seattle Center
06:41PM 45.1850 -118.3439 11° North 389 448 43,000  Level Seattle Center
06:42PM 45.2911 -118.3131 12° North 390 449 43,000  Level Seattle Center
06:43PM 45.3947 -118.2817 12° North 386 444 43,000  Level Seattle Center
06:44PM 45.5228 -118.2456 11° North 389 448 43,000  Level Seattle Center
06:45PM 45.6275 -118.2133 12° North 389 448 43,000  Level Seattle Center
06:46PM 45.7239 -118.1867 11° North 391 450 43,000  Level Seattle Center
06:47PM 45.8300 -118.1539 12° North 389 448 43,000  Level Seattle Center
06:48PM 45.9358 -118.1225 12° North 389 448 43,000  Level Seattle Center
06:49PM 46.0642 -118.0844 12° North 393 452 43,000  Level Seattle Center
06:50PM 46.1708 -118.0528 12° North 393 452 43,000  Level Seattle Center
06:51PM 46.2761 -118.0211 12° North 389 448 43,000  Level Seattle Center
06:52PM 46.3842 -117.9903 11° North 395 455 43,000  Level Seattle Center
06:53PM 46.4906 -117.9589 11° North 392 451 43,000  Level Seattle Center
06:54PM 46.5981 -117.9264 12° North 394 453 43,000  Level Seattle Center
06:55PM 46.7050 -117.8931 12° North 395 455 43,000  Level Seattle Center
06:56PM 46.8119 -117.8608 12° North 393 452 43,000  Level Seattle Center
07:02PM 47.4514 -117.6620 12° North 398 458 43,000  Level FlightAware ADS-B
07:04PM 47.5889 -117.6136 12° North 401 461 43,000  Level Seattle Center
07:05PM 47.6892 -117.5367 27° Northeast 402 463 43,000  Level Seattle Center
07:06PM 47.7900 -117.4617 27° Northeast 401 461 43,000  Level Seattle Center
07:07PM 47.8911 -117.3850 27° Northeast 407 468 43,000  Level Seattle Center
07:08PM 47.9914 -117.3097 27° Northeast 404 465 43,000  Level Seattle Center
07:09PM 48.0908 -117.2339 27° Northeast 401 461 43,000  Level Seattle Center
07:10PM 48.1897 -117.1581 27° Northeast 400 460 43,000  Level Seattle Center
07:11PM 48.2900 -117.0831 26° Northeast 401 461 43,000  Level Seattle Center
07:12PM 48.3894 -117.0061 27° Northeast 402 463 43,000  Level Seattle Center
07:13PM 48.4903 -116.9292 27° Northeast 405 466 43,000  Level Seattle Center
07:14PM 48.5894 -116.8517 27° Northeast 403 464 43,000  Level Seattle Center
07:15PM 48.6906 -116.7750 27° Northeast 405 466 43,000  Level Seattle Center
07:16PM 48.7908 -116.6956 28° Northeast 407 468 43,000  Level Seattle Center
07:17PM 48.8983 -116.6111 27° Northeast 407 468 43,000  Level Seattle Center
07:17PM 48.9500 -116.5167 50° Northeast 410 472 43,000  Level Vancouver Center
07:18PM 49.0500 -116.4500 24° Northeast 410 472 43,000  Level Vancouver Center
07:19PM 49.1667 -116.3667 25° Northeast 410 472 43,000  Level Vancouver Center
07:20PM 49.2333 -116.2667 44° Northeast 410 472 43,000  Level Vancouver Center
07:21PM 49.3500 -116.1833 25° Northeast 410 472 43,000  Level Vancouver Center
07:22PM 49.4500 -116.0833 33° Northeast 410 472 43,000  Level Vancouver Center
07:23PM 49.5500 -116.0167 23° Northeast 410 472 43,000  Level Vancouver Center
07:24PM 49.6500 -115.9833 12° North 410 472 43,000 -240 Level Vancouver Center
07:25PM 49.7500 -115.9167 23° Northeast 410 472 42,600 -600 Descending Vancouver Center
07:26PM 49.8500 -115.8333 28° Northeast 400 460 41,800 -960 Descending Vancouver Center
07:27PM 49.9667 -115.7667 20° North 380 437 40,700 -1,080 Descending Vancouver Center
07:28PM 50.0333 -115.7333 18° North 370 426 39,700 -1,260 Descending Vancouver Center
07:29PM 50.1500 -115.6333 29° Northeast 380 437 38,200 -1,500 Descending Vancouver Center
07:30PM 50.1833 -115.6167 18° North 400 460 37,300 -1,560 Descending Edmonton Center
07:31PM 50.2667 -115.4833 46° Northeast 400 460 35,700 -1,500 Descending Edmonton Center
07:32PM 50.3167 -115.3667 56° Northeast 390 449 34,300 -1,500 Descending Edmonton Center
07:33PM 50.3833 -115.2167 55° Northeast 400 460 32,700 -1,500 Descending Edmonton Center
07:34PM 50.4667 -115.0833 45° Northeast 420 483 31,300 -1,620 Descending Edmonton Center
07:35PM 50.5500 -114.9333 49° Northeast 430 495 29,500 -2,400 Descending Edmonton Center
07:36PM 50.6167 -114.8000 52° Northeast 420 483 26,600 -3,000 Descending Edmonton Center
07:37PM 50.6833 -114.6833 48° Northeast 410 472 23,500 -3,660 Descending Edmonton Center
07:38PM 50.7500 -114.5333 55° Northeast 380 437 19,300 -4,020 Descending Edmonton Center
07:39PM 50.8333 -114.4167 41° Northeast 360 414 15,500 -3,900 Descending Edmonton Center
07:40PM 50.9167 -114.4000 North 300 345 11,600 -3,120 Descending Edmonton Center
07:41PM 50.9833 -114.3667 17° North 290 334 9,300 -2,220 Descending Edmonton Center
07:42PM 51.0500 -114.3000 32° Northeast 250 288 7,200 -1,740 Descending Edmonton Center
07:43PM 51.0833 -114.2500 43° Northeast 180 207 5,900 -900 Descending Edmonton Center
07:44PM 51.1000 -114.1667 72° East 170 196 5,400 -780 Descending Edmonton Center
07:45PM 51.1167 -114.1167 62° Northeast 130 150 4,400 -900 Descending Edmonton Center
07:46PM 51.1000 -114.0667 118° Southeast 120 138 3,700 -720 Descending Edmonton Center